sensor_id;sensor_type;location;lat;lon;timestamp;P1;durP1;ratioP1;P2;durP2;ratioP2
16626;SDS011;8427;52.204;7.202;2023-05-07T00:01:00;52.13;;;47.72;;
16626;SDS011;8427;52.204;7.202;2023-05-07T00:03:28;53.10;;;48.40;;
16626;SDS011;8427;52.204;7.202;2023-05-07T00:05:56;49.93;;;46.00;;
16626;SDS011;8427;52.204;7.202;2023-05-07T00:08:24;54.30;;;49.30;;
16626;SDS011;8427;52.204;7.202;2023-05-07T00:10:52;54.05;;;49.15;;
16626;SDS011;8427;52.204;7.202;2023-05-07T00:13:20;53.97;;;49.08;;
16626;SDS011;8427;52.204;7.202;2023-05-07T00:15:48;54.97;;;49.77;;
16626;SDS011;8427;52.204;7.202;2023-05-07T00:18:18;53.20;;;48.53;;
16626;SDS011;8427;52.204;7.202;2023-05-07T00:20:48;53.83;;;49.03;;
16626;SDS011;8427;52.204;7.202;2023-05-07T00:23:16;50.72;;;46.60;;
16626;SDS011;8427;52.204;7.202;2023-05-07T00:25:44;49.70;;;45.80;;
16626;SDS011;8427;52.204;7.202;2023-05-07T00:28:12;52.97;;;48.20;;
16626;SDS011;8427;52.204;7.202;2023-05-07T00:30:40;53.00;;;48.30;;
16626;SDS011;8427;52.204;7.202;2023-05-07T00:33:08;51.85;;;47.45;;
16626;SDS011;8427;52.204;7.202;2023-05-07T00:35:37;51.15;;;46.83;;
16626;SDS011;8427;52.204;7.202;2023-05-07T00:38:05;51.38;;;47.08;;
16626;SDS011;8427;52.204;7.202;2023-05-07T00:40:33;52.00;;;47.50;;
16626;SDS011;8427;52.204;7.202;2023-05-07T00:43:01;50.47;;;46.10;;
16626;SDS011;8427;52.204;7.202;2023-05-07T00:45:29;51.83;;;47.13;;
16626;SDS011;8427;52.204;7.202;2023-05-07T00:47:58;50.37;;;46.00;;
16626;SDS011;8427;52.204;7.202;2023-05-07T00:50:27;51.47;;;46.80;;
16626;SDS011;8427;52.204;7.202;2023-05-07T00:52:57;49.37;;;45.20;;
16626;SDS011;8427;52.204;7.202;2023-05-07T00:55:26;50.10;;;46.00;;
16626;SDS011;8427;52.204;7.202;2023-05-07T00:57:54;51.87;;;47.17;;
16626;SDS011;8427;52.204;7.202;2023-05-07T01:00:22;49.42;;;45.53;;
16626;SDS011;8427;52.204;7.202;2023-05-07T01:02:51;52.20;;;47.65;;
16626;SDS011;8427;52.204;7.202;2023-05-07T01:05:20;49.57;;;45.37;;
16626;SDS011;8427;52.204;7.202;2023-05-07T01:07:52;50.45;;;46.13;;
16626;SDS011;8427;52.204;7.202;2023-05-07T01:10:23;51.28;;;46.88;;
16626;SDS011;8427;52.204;7.202;2023-05-07T01:12:52;53.65;;;48.70;;
16626;SDS011;8427;52.204;7.202;2023-05-07T01:15:21;53.00;;;48.20;;
16626;SDS011;8427;52.204;7.202;2023-05-07T01:17:49;48.55;;;44.88;;
16626;SDS011;8427;52.204;7.202;2023-05-07T01:20:17;51.17;;;46.78;;
16626;SDS011;8427;52.204;7.202;2023-05-07T01:22:47;51.70;;;47.20;;
16626;SDS011;8427;52.204;7.202;2023-05-07T01:25:16;49.78;;;45.83;;
16626;SDS011;8427;52.204;7.202;2023-05-07T01:27:45;50.67;;;46.45;;
16626;SDS011;8427;52.204;7.202;2023-05-07T01:30:13;53.40;;;48.50;;
16626;SDS011;8427;52.204;7.202;2023-05-07T01:32:43;51.20;;;46.80;;
16626;SDS011;8427;52.204;7.202;2023-05-07T01:35:15;51.70;;;47.20;;
16626;SDS011;8427;52.204;7.202;2023-05-07T01:37:48;50.63;;;46.33;;
16626;SDS011;8427;52.204;7.202;2023-05-07T01:40:17;51.80;;;47.30;;
16626;SDS011;8427;52.204;7.202;2023-05-07T01:42:45;50.43;;;46.23;;
16626;SDS011;8427;52.204;7.202;2023-05-07T01:45:14;50.88;;;46.55;;
16626;SDS011;8427;52.204;7.202;2023-05-07T01:47:42;52.78;;;47.97;;
16626;SDS011;8427;52.204;7.202;2023-05-07T01:50:11;49.00;;;45.10;;
16626;SDS011;8427;52.204;7.202;2023-05-07T01:52:40;50.80;;;46.50;;
16626;SDS011;8427;52.204;7.202;2023-05-07T01:55:09;51.28;;;46.78;;
16626;SDS011;8427;52.204;7.202;2023-05-07T01:57:37;51.63;;;47.10;;
16626;SDS011;8427;52.204;7.202;2023-05-07T02:00:06;48.10;;;44.40;;
16626;SDS011;8427;52.204;7.202;2023-05-07T02:02:36;51.67;;;47.15;;
16626;SDS011;8427;52.204;7.202;2023-05-07T02:05:04;49.78;;;45.67;;
16626;SDS011;8427;52.204;7.202;2023-05-07T02:07:33;51.72;;;47.22;;
16626;SDS011;8427;52.204;7.202;2023-05-07T02:10:01;47.35;;;43.85;;
16626;SDS011;8427;52.204;7.202;2023-05-07T02:12:30;47.53;;;44.03;;
16626;SDS011;8427;52.204;7.202;2023-05-07T02:14:59;48.22;;;44.53;;
16626;SDS011;8427;52.204;7.202;2023-05-07T02:17:27;51.33;;;46.83;;
16626;SDS011;8427;52.204;7.202;2023-05-07T02:19:58;52.08;;;47.42;;
16626;SDS011;8427;52.204;7.202;2023-05-07T02:22:25;52.20;;;47.50;;
16626;SDS011;8427;52.204;7.202;2023-05-07T02:24:53;50.60;;;46.30;;
16626;SDS011;8427;52.204;7.202;2023-05-07T02:27:21;49.08;;;45.08;;
16626;SDS011;8427;52.204;7.202;2023-05-07T02:29:51;51.40;;;46.90;;
16626;SDS011;8427;52.204;7.202;2023-05-07T02:32:18;51.95;;;47.25;;
16626;SDS011;8427;52.204;7.202;2023-05-07T02:34:46;50.90;;;46.40;;
16626;SDS011;8427;52.204;7.202;2023-05-07T02:37:17;48.57;;;44.43;;
16626;SDS011;8427;52.204;7.202;2023-05-07T02:39:45;51.80;;;46.97;;
16626;SDS011;8427;52.204;7.202;2023-05-07T02:42:13;48.00;;;44.10;;
16626;SDS011;8427;52.204;7.202;2023-05-07T02:44:41;47.67;;;43.80;;
16626;SDS011;8427;52.204;7.202;2023-05-07T02:47:10;47.63;;;43.77;;
16626;SDS011;8427;52.204;7.202;2023-05-07T02:49:39;48.83;;;44.53;;
16626;SDS011;8427;52.204;7.202;2023-05-07T02:52:07;49.03;;;44.83;;
16626;SDS011;8427;52.204;7.202;2023-05-07T02:54:35;47.10;;;43.40;;
16626;SDS011;8427;52.204;7.202;2023-05-07T02:57:03;49.97;;;45.47;;
16626;SDS011;8427;52.204;7.202;2023-05-07T02:59:31;50.07;;;45.93;;
16626;SDS011;8427;52.204;7.202;2023-05-07T03:01:59;49.10;;;45.07;;
16626;SDS011;8427;52.204;7.202;2023-05-07T03:04:28;50.40;;;45.93;;
16626;SDS011;8427;52.204;7.202;2023-05-07T03:06:56;49.77;;;45.37;;
16626;SDS011;8427;52.204;7.202;2023-05-07T03:09:24;50.50;;;45.93;;
16626;SDS011;8427;52.204;7.202;2023-05-07T03:11:52;50.40;;;45.77;;
16626;SDS011;8427;52.204;7.202;2023-05-07T03:14:20;46.53;;;42.93;;
16626;SDS011;8427;52.204;7.202;2023-05-07T03:16:48;47.90;;;44.00;;
16626;SDS011;8427;52.204;7.202;2023-05-07T03:19:17;50.33;;;45.87;;
16626;SDS011;8427;52.204;7.202;2023-05-07T03:21:46;49.20;;;44.80;;
16626;SDS011;8427;52.204;7.202;2023-05-07T03:24:14;48.37;;;44.40;;
16626;SDS011;8427;52.204;7.202;2023-05-07T03:26:42;46.20;;;42.67;;
16626;SDS011;8427;52.204;7.202;2023-05-07T03:29:10;49.97;;;45.60;;
16626;SDS011;8427;52.204;7.202;2023-05-07T03:31:37;46.63;;;43.03;;
16626;SDS011;8427;52.204;7.202;2023-05-07T03:34:06;46.10;;;42.60;;
16626;SDS011;8427;52.204;7.202;2023-05-07T03:36:34;64.93;;;51.77;;
16626;SDS011;8427;52.204;7.202;2023-05-07T03:39:03;45.90;;;42.50;;
16626;SDS011;8427;52.204;7.202;2023-05-07T03:41:32;54.10;;;48.70;;
16626;SDS011;8427;52.204;7.202;2023-05-07T03:43:59;46.97;;;43.27;;
16626;SDS011;8427;52.204;7.202;2023-05-07T03:46:27;49.73;;;45.30;;
16626;SDS011;8427;52.204;7.202;2023-05-07T03:48:55;49.43;;;45.10;;
16626;SDS011;8427;52.204;7.202;2023-05-07T03:51:23;53.83;;;48.60;;
16626;SDS011;8427;52.204;7.202;2023-05-07T03:53:51;46.80;;;43.17;;
16626;SDS011;8427;52.204;7.202;2023-05-07T03:56:21;46.83;;;43.20;;
16626;SDS011;8427;52.204;7.202;2023-05-07T03:58:49;45.07;;;41.83;;
16626;SDS011;8427;52.204;7.202;2023-05-07T04:01:17;49.17;;;44.93;;
16626;SDS011;8427;52.204;7.202;2023-05-07T04:03:45;45.60;;;42.20;;
16626;SDS011;8427;52.204;7.202;2023-05-07T04:06:15;47.95;;;44.08;;
16626;SDS011;8427;52.204;7.202;2023-05-07T04:08:43;50.63;;;46.33;;
16626;SDS011;8427;52.204;7.202;2023-05-07T04:11:11;48.80;;;44.90;;
16626;SDS011;8427;52.204;7.202;2023-05-07T04:13:40;41.77;;;39.37;;
16626;SDS011;8427;52.204;7.202;2023-05-07T04:16:09;42.88;;;40.38;;
16626;SDS011;8427;52.204;7.202;2023-05-07T04:18:37;42.33;;;39.83;;
16626;SDS011;8427;52.204;7.202;2023-05-07T04:21:05;42.10;;;39.70;;
16626;SDS011;8427;52.204;7.202;2023-05-07T04:23:33;42.40;;;40.00;;
16626;SDS011;8427;52.204;7.202;2023-05-07T04:26:01;42.40;;;40.00;;
16626;SDS011;8427;52.204;7.202;2023-05-07T04:28:29;41.53;;;39.23;;
16626;SDS011;8427;52.204;7.202;2023-05-07T04:30:58;42.53;;;40.03;;
16626;SDS011;8427;52.204;7.202;2023-05-07T04:33:27;41.17;;;38.83;;
16626;SDS011;8427;52.204;7.202;2023-05-07T04:35:55;42.27;;;39.87;;
16626;SDS011;8427;52.204;7.202;2023-05-07T04:38:23;42.43;;;39.90;;
16626;SDS011;8427;52.204;7.202;2023-05-07T04:40:51;40.93;;;38.70;;
16626;SDS011;8427;52.204;7.202;2023-05-07T04:43:19;40.73;;;38.53;;
16626;SDS011;8427;52.204;7.202;2023-05-07T04:45:49;42.27;;;39.90;;
16626;SDS011;8427;52.204;7.202;2023-05-07T04:48:19;41.50;;;39.20;;
16626;SDS011;8427;52.204;7.202;2023-05-07T04:50:47;41.00;;;38.70;;
16626;SDS011;8427;52.204;7.202;2023-05-07T04:53:15;41.10;;;38.90;;
16626;SDS011;8427;52.204;7.202;2023-05-07T04:55:44;41.63;;;39.37;;
16626;SDS011;8427;52.204;7.202;2023-05-07T04:58:12;40.83;;;38.63;;
16626;SDS011;8427;52.204;7.202;2023-05-07T05:00:40;40.83;;;38.63;;
16626;SDS011;8427;52.204;7.202;2023-05-07T05:03:09;41.60;;;39.30;;
16626;SDS011;8427;52.204;7.202;2023-05-07T05:05:39;41.87;;;39.57;;
16626;SDS011;8427;52.204;7.202;2023-05-07T05:08:07;41.00;;;38.77;;
16626;SDS011;8427;52.204;7.202;2023-05-07T05:10:35;41.33;;;39.03;;
16626;SDS011;8427;52.204;7.202;2023-05-07T05:13:03;41.30;;;39.00;;
16626;SDS011;8427;52.204;7.202;2023-05-07T05:15:31;41.10;;;38.80;;
16626;SDS011;8427;52.204;7.202;2023-05-07T05:17:59;41.97;;;39.57;;
16626;SDS011;8427;52.204;7.202;2023-05-07T05:20:27;41.20;;;38.90;;
16626;SDS011;8427;52.204;7.202;2023-05-07T05:22:56;41.33;;;39.03;;
16626;SDS011;8427;52.204;7.202;2023-05-07T05:25:24;41.00;;;38.70;;
16626;SDS011;8427;52.204;7.202;2023-05-07T05:27:53;42.20;;;39.80;;
16626;SDS011;8427;52.204;7.202;2023-05-07T05:30:21;41.20;;;38.90;;
16626;SDS011;8427;52.204;7.202;2023-05-07T05:32:50;41.77;;;39.37;;
16626;SDS011;8427;52.204;7.202;2023-05-07T05:35:18;41.27;;;38.97;;
16626;SDS011;8427;52.204;7.202;2023-05-07T05:37:46;41.90;;;39.40;;
16626;SDS011;8427;52.204;7.202;2023-05-07T05:40:16;41.30;;;38.93;;
16626;SDS011;8427;52.204;7.202;2023-05-07T05:42:44;41.90;;;39.50;;
16626;SDS011;8427;52.204;7.202;2023-05-07T05:45:12;41.50;;;39.13;;
16626;SDS011;8427;52.204;7.202;2023-05-07T05:47:40;41.83;;;39.37;;
16626;SDS011;8427;52.204;7.202;2023-05-07T05:50:09;41.73;;;39.33;;
16626;SDS011;8427;52.204;7.202;2023-05-07T05:52:37;41.50;;;39.10;;
16626;SDS011;8427;52.204;7.202;2023-05-07T05:55:07;42.23;;;39.73;;
16626;SDS011;8427;52.204;7.202;2023-05-07T05:57:37;41.60;;;39.20;;
16626;SDS011;8427;52.204;7.202;2023-05-07T06:00:06;42.13;;;39.63;;
16626;SDS011;8427;52.204;7.202;2023-05-07T06:02:35;41.80;;;39.40;;
16626;SDS011;8427;52.204;7.202;2023-05-07T06:05:04;42.40;;;39.90;;
16626;SDS011;8427;52.204;7.202;2023-05-07T06:07:33;42.40;;;39.90;;
16626;SDS011;8427;52.204;7.202;2023-05-07T06:10:01;42.30;;;39.80;;
16626;SDS011;8427;52.204;7.202;2023-05-07T06:12:29;42.27;;;39.77;;
16626;SDS011;8427;52.204;7.202;2023-05-07T06:14:59;43.17;;;40.57;;
16626;SDS011;8427;52.204;7.202;2023-05-07T06:17:27;43.60;;;40.80;;
16626;SDS011;8427;52.204;7.202;2023-05-07T06:19:55;43.00;;;40.40;;
16626;SDS011;8427;52.204;7.202;2023-05-07T06:22:23;43.03;;;40.43;;
16626;SDS011;8427;52.204;7.202;2023-05-07T06:24:51;42.67;;;40.07;;
16626;SDS011;8427;52.204;7.202;2023-05-07T06:27:19;43.00;;;40.40;;
16626;SDS011;8427;52.204;7.202;2023-05-07T06:29:47;42.50;;;39.90;;
16626;SDS011;8427;52.204;7.202;2023-05-07T06:32:17;43.23;;;40.53;;
16626;SDS011;8427;52.204;7.202;2023-05-07T06:34:46;43.30;;;40.50;;
16626;SDS011;8427;52.204;7.202;2023-05-07T06:37:14;45.30;;;42.20;;
16626;SDS011;8427;52.204;7.202;2023-05-07T06:39:42;43.60;;;40.70;;
16626;SDS011;8427;52.204;7.202;2023-05-07T06:42:10;44.00;;;41.00;;
16626;SDS011;8427;52.204;7.202;2023-05-07T06:44:38;44.77;;;41.67;;
16626;SDS011;8427;52.204;7.202;2023-05-07T06:47:06;44.00;;;41.00;;
16626;SDS011;8427;52.204;7.202;2023-05-07T06:49:35;44.67;;;41.57;;
16626;SDS011;8427;52.204;7.202;2023-05-07T06:52:03;46.10;;;42.90;;
16626;SDS011;8427;52.204;7.202;2023-05-07T06:54:31;44.10;;;41.10;;
16626;SDS011;8427;52.204;7.202;2023-05-07T06:56:59;46.13;;;42.93;;
16626;SDS011;8427;52.204;7.202;2023-05-07T06:59:27;46.77;;;43.30;;
16626;SDS011;8427;52.204;7.202;2023-05-07T07:01:55;46.13;;;42.73;;
16626;SDS011;8427;52.204;7.202;2023-05-07T07:04:23;46.93;;;43.53;;
16626;SDS011;8427;52.204;7.202;2023-05-07T07:06:53;45.87;;;42.57;;
16626;SDS011;8427;52.204;7.202;2023-05-07T07:09:22;46.53;;;43.17;;
16626;SDS011;8427;52.204;7.202;2023-05-07T07:11:51;44.30;;;41.17;;
16626;SDS011;8427;52.204;7.202;2023-05-07T07:14:19;44.33;;;41.20;;
16626;SDS011;8427;52.204;7.202;2023-05-07T07:16:47;45.23;;;41.93;;
16626;SDS011;8427;52.204;7.202;2023-05-07T07:19:14;45.03;;;41.73;;
16626;SDS011;8427;52.204;7.202;2023-05-07T07:21:42;45.47;;;42.00;;
16626;SDS011;8427;52.204;7.202;2023-05-07T07:24:12;45.10;;;41.80;;
16626;SDS011;8427;52.204;7.202;2023-05-07T07:26:45;46.00;;;42.50;;
16626;SDS011;8427;52.204;7.202;2023-05-07T07:29:13;47.73;;;43.73;;
16626;SDS011;8427;52.204;7.202;2023-05-07T07:31:41;49.60;;;44.60;;
16626;SDS011;8427;52.204;7.202;2023-05-07T07:37:06;49.20;;;44.50;;
16626;SDS011;8427;52.204;7.202;2023-05-07T07:39:36;47.40;;;43.33;;
16626;SDS011;8427;52.204;7.202;2023-05-07T07:42:04;46.90;;;42.90;;
16626;SDS011;8427;52.204;7.202;2023-05-07T07:44:32;46.57;;;42.67;;
16626;SDS011;8427;52.204;7.202;2023-05-07T07:47:00;47.10;;;43.10;;
16626;SDS011;8427;52.204;7.202;2023-05-07T07:49:30;46.90;;;42.93;;
16626;SDS011;8427;52.204;7.202;2023-05-07T07:51:58;47.00;;;43.00;;
16626;SDS011;8427;52.204;7.202;2023-05-07T07:54:26;47.07;;;43.07;;
16626;SDS011;8427;52.204;7.202;2023-05-07T07:56:57;48.50;;;43.90;;
16626;SDS011;8427;52.204;7.202;2023-05-07T07:59:25;48.60;;;43.97;;
16626;SDS011;8427;52.204;7.202;2023-05-07T08:01:53;50.80;;;45.20;;
16626;SDS011;8427;52.204;7.202;2023-05-07T08:04:23;49.27;;;44.37;;
16626;SDS011;8427;52.204;7.202;2023-05-07T08:06:51;53.50;;;47.60;;
16626;SDS011;8427;52.204;7.202;2023-05-07T08:09:20;49.57;;;44.67;;
16626;SDS011;8427;52.204;7.202;2023-05-07T08:11:48;50.80;;;45.80;;
16626;SDS011;8427;52.204;7.202;2023-05-07T08:14:17;57.67;;;46.67;;
16626;SDS011;8427;52.204;7.202;2023-05-07T08:16:45;50.13;;;45.03;;
16626;SDS011;8427;52.204;7.202;2023-05-07T08:19:13;49.10;;;44.30;;
16626;SDS011;8427;52.204;7.202;2023-05-07T08:21:42;49.37;;;44.47;;
16626;SDS011;8427;52.204;7.202;2023-05-07T08:24:10;49.10;;;44.30;;
16626;SDS011;8427;52.204;7.202;2023-05-07T08:26:38;52.00;;;46.65;;
16626;SDS011;8427;52.204;7.202;2023-05-07T08:29:06;50.13;;;44.97;;
16626;SDS011;8427;52.204;7.202;2023-05-07T08:31:35;50.40;;;45.20;;
16626;SDS011;8427;52.204;7.202;2023-05-07T08:34:04;50.33;;;45.33;;
16626;SDS011;8427;52.204;7.202;2023-05-07T08:36:35;49.90;;;45.00;;
16626;SDS011;8427;52.204;7.202;2023-05-07T08:39:03;52.00;;;46.80;;
16626;SDS011;8427;52.204;7.202;2023-05-07T08:41:31;52.40;;;47.10;;
16626;SDS011;8427;52.204;7.202;2023-05-07T08:44:00;51.80;;;46.20;;
16626;SDS011;8427;52.204;7.202;2023-05-07T08:46:33;52.60;;;47.00;;
16626;SDS011;8427;52.204;7.202;2023-05-07T08:49:03;52.17;;;46.80;;
16626;SDS011;8427;52.204;7.202;2023-05-07T08:51:31;50.20;;;45.20;;
16626;SDS011;8427;52.204;7.202;2023-05-07T08:54:00;49.90;;;45.00;;
16626;SDS011;8427;52.204;7.202;2023-05-07T08:56:29;50.53;;;45.53;;
16626;SDS011;8427;52.204;7.202;2023-05-07T08:58:58;49.67;;;44.77;;
16626;SDS011;8427;52.204;7.202;2023-05-07T09:01:26;49.60;;;44.70;;
16626;SDS011;8427;52.204;7.202;2023-05-07T09:03:57;49.90;;;44.87;;
16626;SDS011;8427;52.204;7.202;2023-05-07T09:06:25;53.27;;;47.67;;
16626;SDS011;8427;52.204;7.202;2023-05-07T09:08:53;50.47;;;45.17;;
16626;SDS011;8427;52.204;7.202;2023-05-07T09:11:22;50.53;;;45.27;;
16626;SDS011;8427;52.204;7.202;2023-05-07T09:13:53;50.70;;;45.40;;
16626;SDS011;8427;52.204;7.202;2023-05-07T09:16:22;52.10;;;46.60;;
16626;SDS011;8427;52.204;7.202;2023-05-07T09:18:51;57.50;;;46.80;;
16626;SDS011;8427;52.204;7.202;2023-05-07T09:21:22;51.17;;;45.67;;
16626;SDS011;8427;52.204;7.202;2023-05-07T09:23:50;52.00;;;46.40;;
16626;SDS011;8427;52.204;7.202;2023-05-07T09:26:20;50.93;;;45.60;;
16626;SDS011;8427;52.204;7.202;2023-05-07T09:28:49;50.77;;;45.47;;
16626;SDS011;8427;52.204;7.202;2023-05-07T09:31:17;51.10;;;45.70;;
16626;SDS011;8427;52.204;7.202;2023-05-07T09:33:47;50.83;;;45.47;;
16626;SDS011;8427;52.204;7.202;2023-05-07T09:36:15;50.30;;;45.20;;
16626;SDS011;8427;52.204;7.202;2023-05-07T09:38:45;51.20;;;46.00;;
16626;SDS011;8427;52.204;7.202;2023-05-07T09:41:13;51.70;;;46.17;;
16626;SDS011;8427;52.204;7.202;2023-05-07T09:43:41;51.90;;;46.50;;
16626;SDS011;8427;52.204;7.202;2023-05-07T09:46:11;52.23;;;46.60;;
16626;SDS011;8427;52.204;7.202;2023-05-07T09:48:41;51.53;;;46.13;;
16626;SDS011;8427;52.204;7.202;2023-05-07T09:51:13;52.23;;;46.47;;
16626;SDS011;8427;52.204;7.202;2023-05-07T09:53:47;51.20;;;45.70;;
16626;SDS011;8427;52.204;7.202;2023-05-07T09:56:15;53.13;;;47.50;;
16626;SDS011;8427;52.204;7.202;2023-05-07T09:58:45;50.70;;;45.50;;
16626;SDS011;8427;52.204;7.202;2023-05-07T10:01:14;51.00;;;45.70;;
16626;SDS011;8427;52.204;7.202;2023-05-07T10:03:45;51.17;;;45.77;;
16626;SDS011;8427;52.204;7.202;2023-05-07T10:06:14;51.27;;;45.80;;
16626;SDS011;8427;52.204;7.202;2023-05-07T10:08:42;51.20;;;45.90;;
16626;SDS011;8427;52.204;7.202;2023-05-07T10:11:12;50.80;;;45.50;;
16626;SDS011;8427;52.204;7.202;2023-05-07T10:13:41;50.87;;;45.57;;
16626;SDS011;8427;52.204;7.202;2023-05-07T10:16:10;52.73;;;47.13;;
16626;SDS011;8427;52.204;7.202;2023-05-07T10:18:38;51.57;;;46.07;;
16626;SDS011;8427;52.204;7.202;2023-05-07T10:21:08;50.97;;;45.67;;
16626;SDS011;8427;52.204;7.202;2023-05-07T10:23:38;51.47;;;46.07;;
16626;SDS011;8427;52.204;7.202;2023-05-07T10:26:08;52.40;;;46.30;;
16626;SDS011;8427;52.204;7.202;2023-05-07T10:28:39;53.63;;;47.87;;
16626;SDS011;8427;52.204;7.202;2023-05-07T10:31:15;52.97;;;47.27;;
16626;SDS011;8427;52.204;7.202;2023-05-07T10:36:27;53.07;;;47.27;;
16626;SDS011;8427;52.204;7.202;2023-05-07T10:38:55;54.90;;;48.10;;
16626;SDS011;8427;52.204;7.202;2023-05-07T10:41:23;55.35;;;49.25;;
16626;SDS011;8427;52.204;7.202;2023-05-07T10:43:52;52.50;;;46.90;;
16626;SDS011;8427;52.204;7.202;2023-05-07T10:46:20;52.50;;;46.87;;
16626;SDS011;8427;52.204;7.202;2023-05-07T10:51:39;52.83;;;47.22;;
16626;SDS011;8427;52.204;7.202;2023-05-07T10:54:22;53.20;;;47.50;;
16626;SDS011;8427;52.204;7.202;2023-05-07T10:56:53;53.00;;;47.20;;
16626;SDS011;8427;52.204;7.202;2023-05-07T10:59:32;52.50;;;47.00;;
16626;SDS011;8427;52.204;7.202;2023-05-07T11:02:07;51.50;;;46.10;;
16626;SDS011;8427;52.204;7.202;2023-05-07T11:04:37;54.43;;;48.43;;
16626;SDS011;8427;52.204;7.202;2023-05-07T11:10:04;58.15;;;48.40;;
16626;SDS011;8427;52.204;7.202;2023-05-07T11:12:49;55.53;;;49.20;;
16626;SDS011;8427;52.204;7.202;2023-05-07T11:15:35;56.90;;;49.40;;
16626;SDS011;8427;52.204;7.202;2023-05-07T11:18:04;56.30;;;49.58;;
16626;SDS011;8427;52.204;7.202;2023-05-07T11:20:52;53.10;;;47.30;;
16626;SDS011;8427;52.204;7.202;2023-05-07T11:26:27;57.85;;;51.17;;
16626;SDS011;8427;52.204;7.202;2023-05-07T11:28:57;53.40;;;47.60;;
16626;SDS011;8427;52.204;7.202;2023-05-07T11:31:27;54.10;;;48.17;;
16626;SDS011;8427;52.204;7.202;2023-05-07T11:33:56;52.80;;;47.10;;
16626;SDS011;8427;52.204;7.202;2023-05-07T11:36:25;54.80;;;48.90;;
16626;SDS011;8427;52.204;7.202;2023-05-07T11:38:58;53.57;;;47.70;;
16626;SDS011;8427;52.204;7.202;2023-05-07T11:41:33;53.53;;;47.73;;
16626;SDS011;8427;52.204;7.202;2023-05-07T11:44:02;52.77;;;47.00;;
16626;SDS011;8427;52.204;7.202;2023-05-07T11:46:31;54.50;;;47.57;;
16626;SDS011;8427;52.204;7.202;2023-05-07T11:49:00;52.97;;;47.17;;
16626;SDS011;8427;52.204;7.202;2023-05-07T11:51:29;84.57;;;53.53;;
16626;SDS011;8427;52.204;7.202;2023-05-07T11:53:58;65.83;;;48.30;;
16626;SDS011;8427;52.204;7.202;2023-05-07T11:56:28;82.63;;;51.50;;
16626;SDS011;8427;52.204;7.202;2023-05-07T11:58:57;65.90;;;48.83;;
16626;SDS011;8427;52.204;7.202;2023-05-07T12:01:25;61.60;;;47.80;;
16626;SDS011;8427;52.204;7.202;2023-05-07T12:03:54;60.13;;;47.70;;
16626;SDS011;8427;52.204;7.202;2023-05-07T12:06:22;62.97;;;48.10;;
16626;SDS011;8427;52.204;7.202;2023-05-07T12:08:50;76.72;;;51.10;;
16626;SDS011;8427;52.204;7.202;2023-05-07T12:11:21;66.20;;;50.50;;
16626;SDS011;8427;52.204;7.202;2023-05-07T12:13:51;67.17;;;49.40;;
16626;SDS011;8427;52.204;7.202;2023-05-07T12:16:24;65.38;;;49.92;;
16626;SDS011;8427;52.204;7.202;2023-05-07T12:18:54;64.93;;;48.53;;
16626;SDS011;8427;52.204;7.202;2023-05-07T12:21:25;71.93;;;49.70;;
16626;SDS011;8427;52.204;7.202;2023-05-07T12:23:53;64.00;;;48.60;;
16626;SDS011;8427;52.204;7.202;2023-05-07T12:26:21;66.35;;;50.10;;
16626;SDS011;8427;52.204;7.202;2023-05-07T12:28:48;61.28;;;50.00;;
16626;SDS011;8427;52.204;7.202;2023-05-07T12:31:17;59.15;;;49.60;;
16626;SDS011;8427;52.204;7.202;2023-05-07T12:33:45;56.60;;;48.40;;
16626;SDS011;8427;52.204;7.202;2023-05-07T12:36:14;59.22;;;49.58;;
16626;SDS011;8427;52.204;7.202;2023-05-07T12:38:43;60.97;;;50.10;;
16626;SDS011;8427;52.204;7.202;2023-05-07T12:41:11;57.10;;;48.10;;
16626;SDS011;8427;52.204;7.202;2023-05-07T12:43:39;58.80;;;49.08;;
16626;SDS011;8427;52.204;7.202;2023-05-07T12:46:11;55.80;;;48.03;;
16626;SDS011;8427;52.204;7.202;2023-05-07T12:48:43;56.23;;;47.77;;
16626;SDS011;8427;52.204;7.202;2023-05-07T12:51:12;56.50;;;48.20;;
16626;SDS011;8427;52.204;7.202;2023-05-07T12:53:43;64.10;;;50.13;;
16626;SDS011;8427;52.204;7.202;2023-05-07T12:56:11;62.20;;;48.67;;
16626;SDS011;8427;52.204;7.202;2023-05-07T12:58:39;60.15;;;49.40;;
16626;SDS011;8427;52.204;7.202;2023-05-07T13:01:07;66.60;;;49.47;;
16626;SDS011;8427;52.204;7.202;2023-05-07T13:03:37;68.23;;;49.40;;
16626;SDS011;8427;52.204;7.202;2023-05-07T13:06:06;59.50;;;48.70;;
16626;SDS011;8427;52.204;7.202;2023-05-07T13:08:38;60.60;;;49.88;;
16626;SDS011;8427;52.204;7.202;2023-05-07T13:11:09;65.70;;;50.17;;
16626;SDS011;8427;52.204;7.202;2023-05-07T13:13:38;73.43;;;50.20;;
16626;SDS011;8427;52.204;7.202;2023-05-07T13:16:07;68.53;;;49.43;;
16626;SDS011;8427;52.204;7.202;2023-05-07T13:18:37;70.03;;;49.83;;
16626;SDS011;8427;52.204;7.202;2023-05-07T13:21:07;66.37;;;49.33;;
16626;SDS011;8427;52.204;7.202;2023-05-07T13:23:38;58.83;;;48.50;;
16626;SDS011;8427;52.204;7.202;2023-05-07T13:26:06;66.20;;;50.80;;
16626;SDS011;8427;52.204;7.202;2023-05-07T13:28:51;61.13;;;49.27;;
16626;SDS011;8427;52.204;7.202;2023-05-07T13:31:19;61.13;;;48.97;;
16626;SDS011;8427;52.204;7.202;2023-05-07T13:33:48;60.67;;;48.57;;
16626;SDS011;8427;52.204;7.202;2023-05-07T13:36:16;61.80;;;49.40;;
16626;SDS011;8427;52.204;7.202;2023-05-07T13:38:46;68.07;;;49.50;;
16626;SDS011;8427;52.204;7.202;2023-05-07T13:41:14;68.13;;;49.60;;
16626;SDS011;8427;52.204;7.202;2023-05-07T13:43:42;77.23;;;51.10;;
16626;SDS011;8427;52.204;7.202;2023-05-07T13:46:10;76.40;;;50.73;;
16626;SDS011;8427;52.204;7.202;2023-05-07T13:48:38;78.17;;;51.07;;
16626;SDS011;8427;52.204;7.202;2023-05-07T13:51:06;60.73;;;49.00;;
16626;SDS011;8427;52.204;7.202;2023-05-07T13:53:34;72.63;;;50.70;;
16626;SDS011;8427;52.204;7.202;2023-05-07T13:56:04;62.90;;;49.10;;
16626;SDS011;8427;52.204;7.202;2023-05-07T13:58:32;63.77;;;49.80;;
16626;SDS011;8427;52.204;7.202;2023-05-07T14:01:13;71.67;;;50.23;;
16626;SDS011;8427;52.204;7.202;2023-05-07T14:03:41;73.70;;;50.67;;
16626;SDS011;8427;52.204;7.202;2023-05-07T14:06:10;67.80;;;49.70;;
16626;SDS011;8427;52.204;7.202;2023-05-07T14:08:38;69.60;;;49.93;;
16626;SDS011;8427;52.204;7.202;2023-05-07T14:11:07;60.17;;;48.90;;
16626;SDS011;8427;52.204;7.202;2023-05-07T14:13:35;62.70;;;49.00;;
16626;SDS011;8427;52.204;7.202;2023-05-07T14:16:03;69.03;;;50.10;;
16626;SDS011;8427;52.204;7.202;2023-05-07T14:18:32;59.23;;;48.80;;
16626;SDS011;8427;52.204;7.202;2023-05-07T14:21:04;61.87;;;48.80;;
16626;SDS011;8427;52.204;7.202;2023-05-07T14:23:33;74.87;;;51.23;;
16626;SDS011;8427;52.204;7.202;2023-05-07T14:26:01;67.97;;;49.93;;
16626;SDS011;8427;52.204;7.202;2023-05-07T14:28:31;69.43;;;49.77;;
16626;SDS011;8427;52.204;7.202;2023-05-07T14:30:59;61.30;;;48.90;;
16626;SDS011;8427;52.204;7.202;2023-05-07T14:33:27;69.13;;;49.60;;
16626;SDS011;8427;52.204;7.202;2023-05-07T14:35:55;59.40;;;48.20;;
16626;SDS011;8427;52.204;7.202;2023-05-07T14:38:23;59.73;;;48.13;;
16626;SDS011;8427;52.204;7.202;2023-05-07T14:40:51;62.53;;;48.87;;
16626;SDS011;8427;52.204;7.202;2023-05-07T14:43:21;56.80;;;48.10;;
16626;SDS011;8427;52.204;7.202;2023-05-07T14:45:51;57.30;;;47.90;;
16626;SDS011;8427;52.204;7.202;2023-05-07T14:48:19;66.13;;;49.47;;
16626;SDS011;8427;52.204;7.202;2023-05-07T14:50:47;63.37;;;48.83;;
16626;SDS011;8427;52.204;7.202;2023-05-07T14:53:15;62.83;;;48.70;;
16626;SDS011;8427;52.204;7.202;2023-05-07T14:55:43;59.80;;;48.33;;
16626;SDS011;8427;52.204;7.202;2023-05-07T14:58:11;63.00;;;48.87;;